| time (UTC) | temp F | wind direction | speed knots | gust knots | rain 1hr in | rain 24hr in | rain mn in | humidity % | barometer mb |
| 20260506222120 | 59 | 233 | 0.0 | 0.0 | 0.00 | 0.28 | 0.28 | 100 | 1003.9 |
| 20260506221621 | 59 | 210 | 0.0 | 0.0 | 0.00 | 0.28 | 0.28 | 100 | 1003.9 |
| 20260506221121 | 59 | 222 | 0.0 | 0.0 | 0.00 | 0.28 | 0.28 | 100 | 1003.9 |
| 20260506215622 | 59 | 189 | 0.0 | 0.0 | 0.00 | 0.28 | 0.28 | 100 | 1003.5 |
| 20260506215123 | 59 | 198 | 0.0 | 0.0 | 0.00 | 0.28 | 0.28 | 100 | 1003.5 |
| 20260506214623 | 59 | 205 | 0.0 | 0.0 | 0.00 | 0.28 | 0.28 | 100 | 1003.5 |
| 20260506214053 | 59 | 195 | 0.0 | 0.0 | 0.00 | 0.28 | 0.28 | 100 | 1003.6 |
| 20260506213554 | 59 | 223 | 0.0 | 0.0 | 0.00 | 0.28 | 0.28 | 100 | 1003.6 |
| 20260506213054 | 59 | 203 | 0.0 | 0.0 | 0.00 | 0.28 | 0.28 | 100 | 1003.6 |
| 20260506212626 | 59 | 220 | 0.0 | 0.0 | 0.00 | 0.28 | 0.28 | 100 | 1003.6 |
| 20260506211627 | 59 | 203 | 0.0 | 0.0 | 0.00 | 0.28 | 0.28 | 100 | 1003.6 |
| 20260506211056 | 59 | 208 | 0.0 | 0.0 | 0.00 | 0.28 | 0.28 | 100 | 1003.4 |
| 20260506205627 | 59 | 220 | 0.0 | 0.0 | 0.01 | 0.28 | 0.28 | 100 | 1003.3 |
| 20260506205057 | 59 | 236 | 0.0 | 0.0 | 0.01 | 0.28 | 0.28 | 100 | 1003.3 |
| 20260506204628 | 59 | 216 | 0.0 | 0.0 | 0.01 | 0.28 | 0.28 | 100 | 1003.3 |
| 20260506204058 | 59 | 232 | 0.0 | 0.0 | 0.01 | 0.28 | 0.28 | 100 | 1003.3 |
| 20260506203059 | 59 | 216 | 0.0 | 0.0 | 0.01 | 0.28 | 0.28 | 100 | 1003.3 |
| 20260506202559 | 59 | 186 | 0.0 | 0.0 | 0.01 | 0.28 | 0.28 | 100 | 1003.3 |
| 20260506202100 | 59 | 208 | 0.0 | 0.0 | 0.01 | 0.28 | 0.28 | 100 | 1003.3 |
| 20260506201601 | 59 | 172 | 0.0 | 0.0 | 0.01 | 0.28 | 0.28 | 100 | 1003.3 |
| 20260506201101 | 59 | 217 | 0.0 | 0.0 | 0.02 | 0.28 | 0.28 | 100 | 1003.3 |
| 20260506200201 | 59 | 196 | 0.0 | 0.0 | 0.03 | 0.28 | 0.28 | 100 | 1003.3 |
| 20260506195602 | 59 | 205 | 0.0 | 0.0 | 0.02 | 0.27 | 0.27 | 100 | 1003.4 |
| 20260506195102 | 59 | 202 | 0.0 | 0.0 | 0.03 | 0.27 | 0.27 | 100 | 1003.4 |
| 20260506194603 | 59 | 213 | 0.0 | 0.0 | 0.03 | 0.27 | 0.27 | 100 | 1003.4 |
| 20260506194103 | 59 | 113 | 0.0 | 0.0 | 0.04 | 0.27 | 0.27 | 100 | 1003.9 |
| 20260506193604 | 59 | 205 | 0.0 | 0.0 | 0.06 | 0.27 | 0.27 | 100 | 1003.9 |
| 20260506193104 | 59 | 223 | 0.0 | 0.0 | 0.07 | 0.27 | 0.27 | 100 | 1003.9 |
| 20260506192604 | 59 | 213 | 0.0 | 0.0 | 0.08 | 0.27 | 0.27 | 100 | 1004.0 |
| 20260506192104 | 59 | 229 | 0.0 | 0.0 | 0.09 | 0.27 | 0.27 | 100 | 1004.0 |
| 20260506191605 | 59 | 220 | 0.0 | 0.0 | 0.10 | 0.27 | 0.27 | 100 | 1004.0 |
| 20260506191105 | 59 | 206 | 0.0 | 0.0 | 0.10 | 0.26 | 0.26 | 100 | 1004.1 |
| 20260506190606 | 59 | 212 | 0.0 | 0.0 | 0.11 | 0.26 | 0.26 | 100 | 1004.1 |
| 20260506185607 | 59 | 167 | 0.0 | 0.0 | 0.13 | 0.25 | 0.25 | 100 | 1004.1 |
| 20260506185107 | 59 | 216 | 0.0 | 0.0 | 0.12 | 0.24 | 0.24 | 100 | 1004.1 |
| 20260506184607 | 59 | 250 | 0.0 | 0.0 | 0.12 | 0.24 | 0.24 | 100 | 1004.1 |
| 20260506184108 | 59 | 212 | 0.0 | 0.0 | 0.11 | 0.23 | 0.23 | 100 | 1004.2 |
| 20260506183608 | 59 | 189 | 0.0 | 0.0 | 0.09 | 0.21 | 0.21 | 100 | 1004.2 |
| 20260506182110 | 59 | 213 | 0.0 | 0.0 | 0.06 | 0.18 | 0.18 | 100 | 1004.3 |
| 20260506181610 | 59 | 212 | 0.0 | 0.0 | 0.05 | 0.17 | 0.17 | 100 | 1004.3 |
| 20260506181111 | 59 | 192 | 0.0 | 0.0 | 0.04 | 0.16 | 0.16 | 100 | 1004.4 |
| 20260506180612 | 59 | 224 | 0.0 | 0.0 | 0.03 | 0.15 | 0.15 | 100 | 1004.4 |
| 20260506175612 | 59 | 210 | 0.0 | 0.0 | 0.01 | 0.12 | 0.12 | 100 | 1004.5 |
| 20260506175112 | 59 | 172 | 0.0 | 0.0 | 0.01 | 0.12 | 0.12 | 100 | 1004.5 |
| 20260506174613 | 59 | 227 | 0.0 | 0.0 | 0.01 | 0.12 | 0.12 | 100 | 1004.5 |
| 20260506173614 | 59 | 229 | 0.0 | 0.0 | 0.02 | 0.12 | 0.12 | 100 | 1004.4 |
| 20260506173114 | 59 | 185 | 0.0 | 0.0 | 0.02 | 0.12 | 0.12 | 100 | 1004.4 |
| 20260506172615 | 60 | 205 | 0.0 | 0.0 | 0.03 | 0.12 | 0.12 | 100 | 1004.4 |
| 20260506171616 | 59 | 219 | 0.0 | 0.0 | 0.05 | 0.12 | 0.12 | 100 | 1004.4 |
| 20260506171117 | 59 | 209 | 0.0 | 0.0 | 0.06 | 0.12 | 0.12 | 100 | 1004.5 |
| 20260506170616 | 59 | 209 | 0.0 | 0.0 | 0.07 | 0.12 | 0.12 | 100 | 1004.5 |
| 20260506165617 | 59 | 179 | 0.0 | 0.0 | 0.07 | 0.11 | 0.11 | 100 | 1004.4 |
| 20260506164618 | 59 | 160 | 0.0 | 0.0 | 0.08 | 0.11 | 0.11 | 100 | 1004.4 |
| 20260506163619 | 60 | 220 | 0.0 | 0.0 | 0.07 | 0.10 | 0.10 | 100 | 1005.1 |
| 20260506163119 | 60 | 113 | 0.0 | 0.0 | 0.08 | 0.10 | 0.10 | 100 | 1005.1 |
| 20260506162620 | 60 | 203 | 0.0 | 0.0 | 0.07 | 0.09 | 0.09 | 100 | 1005.6 |
| 20260506162121 | 60 | 147 | 0.0 | 0.0 | 0.06 | 0.08 | 0.08 | 100 | 1005.6 |
| 20260506161620 | 60 | 210 | 0.0 | 0.0 | 0.06 | 0.07 | 0.07 | 100 | 1005.6 |
| 20260506160552 | 60 | 193 | 0.0 | 0.0 | 0.05 | 0.05 | 0.05 | 98 | 1005.7 |
| 20260506155552 | 61 | 216 | 0.0 | 0.0 | 0.04 | 0.04 | 0.04 | 97 | 1006.0 |
| 20260506155052 | 61 | 243 | 0.0 | 0.0 | 0.03 | 0.03 | 0.03 | 97 | 1006.0 |
| 20260506154623 | 61 | 213 | 0.0 | 0.0 | 0.03 | 0.03 | 0.03 | 96 | 1006.0 |
| 20260506154125 | 62 | 196 | 0.0 | 0.0 | 0.03 | 0.03 | 0.03 | 96 | 1005.8 |
| 20260506153054 | 62 | 205 | 0.0 | 0.0 | 0.02 | 0.02 | 0.02 | 94 | 1005.8 |
| 20260506152555 | 62 | 205 | 0.0 | 0.0 | 0.02 | 0.02 | 0.02 | 93 | 1005.7 |
| 20260506152055 | 62 | 196 | 0.0 | 0.0 | 0.02 | 0.02 | 0.02 | 91 | 1005.7 |
| 20260506151556 | 62 | 188 | 0.0 | 0.0 | 0.01 | 0.01 | 0.01 | 89 | 1005.7 |
| 20260506151126 | 62 | 217 | 0.0 | 0.0 | 0.01 | 0.01 | 0.01 | 87 | 1006.0 |
| 20260506150557 | 63 | 219 | 0.0 | 0.0 | 0.00 | 0.00 | 0.00 | 84 | 1006.1 |
| 20260506145557 | 63 | 208 | 0.0 | 0.0 | 0.00 | 0.00 | 0.00 | 80 | 1006.1 |
| 20260506145058 | 63 | 203 | 0.0 | 0.0 | 0.00 | 0.00 | 0.00 | 79 | 1006.1 |
| 20260506144558 | 63 | 210 | 0.0 | 0.0 | 0.00 | 0.00 | 0.00 | 79 | 1006.1 |
| 20260506144058 | 63 | 181 | 0.0 | 0.0 | 0.00 | 0.00 | 0.00 | 79 | 1006.2 |
| 20260506143559 | 63 | 206 | 0.0 | 0.0 | 0.00 | 0.00 | 0.00 | 79 | 1006.2 |
| 20260506143129 | 63 | 178 | 0.0 | 0.0 | 0.00 | 0.00 | 0.00 | 80 | 1006.2 |
| 20260506142600 | 63 | 199 | 0.0 | 0.0 | 0.00 | 0.00 | 0.00 | 80 | 1006.1 |
| 20260506142130 | 63 | 200 | 0.0 | 0.0 | 0.00 | 0.00 | 0.00 | 80 | 1006.1 |
| 20260506141600 | 63 | 210 | 0.0 | 0.0 | 0.00 | 0.00 | 0.00 | 79 | 1006.1 |
| 20260506141131 | 63 | 240 | 0.0 | 0.0 | 0.00 | 0.00 | 0.00 | 79 | 1006.0 |
| 20260506140603 | 63 | 223 | 0.0 | 0.0 | 0.00 | 0.00 | 0.00 | 79 | 1006.0 |
| 20260506135603 | 63 | 202 | 0.0 | 0.0 | 0.00 | 0.00 | 0.00 | 80 | 1006.2 |
| 20260506135103 | 63 | 193 | 0.0 | 0.0 | 0.00 | 0.00 | 0.00 | 80 | 1006.2 |
| 20260506134603 | 63 | 186 | 0.0 | 0.0 | 0.00 | 0.00 | 0.00 | 80 | 1006.2 |
| 20260506133604 | 63 | 209 | 0.0 | 0.0 | 0.00 | 0.00 | 0.00 | 80 | 1006.3 |
| 20260506132605 | 63 | 200 | 0.0 | 0.0 | 0.00 | 0.00 | 0.00 | 80 | 1006.4 |
| 20260506132105 | 63 | 219 | 0.0 | 0.0 | 0.00 | 0.00 | 0.00 | 80 | 1006.4 |
| 20260506131605 | 63 | 191 | 0.0 | 0.0 | 0.00 | 0.00 | 0.00 | 80 | 1006.4 |
| 20260506131136 | 63 | 185 | 0.0 | 0.0 | 0.00 | 0.00 | 0.00 | 81 | 1006.4 |
| 20260506130606 | 63 | 175 | 0.0 | 0.0 | 0.00 | 0.00 | 0.00 | 81 | 1006.4 |
| 20260506125607 | 63 | 186 | 0.0 | 0.0 | 0.00 | 0.00 | 0.00 | 81 | 1006.2 |
| 20260506125138 | 62 | 193 | 0.0 | 0.0 | 0.00 | 0.00 | 0.00 | 82 | 1006.2 |
| 20260506124609 | 63 | 205 | 0.0 | 0.0 | 0.00 | 0.00 | 0.00 | 82 | 1006.2 |
| 20260506124139 | 62 | 160 | 0.0 | 0.0 | 0.00 | 0.00 | 0.00 | 82 | 1006.0 |
| 20260506123609 | 62 | 202 | 0.0 | 0.0 | 0.00 | 0.00 | 0.00 | 82 | 1006.0 |
| 20260506123109 | 62 | 215 | 0.0 | 0.0 | 0.00 | 0.00 | 0.00 | 83 | 1006.0 |
| 20260506122610 | 62 | 216 | 0.0 | 0.0 | 0.00 | 0.00 | 0.00 | 84 | 1006.2 |
| 20260506122110 | 62 | 217 | 0.0 | 0.0 | 0.00 | 0.00 | 0.00 | 83 | 1006.2 |
| 20260506121610 | 62 | 213 | 0.0 | 0.0 | 0.00 | 0.00 | 0.00 | 83 | 1006.2 |
| 20260506121110 | 62 | 244 | 0.0 | 0.0 | 0.00 | 0.00 | 0.00 | 84 | 1006.3 |
| 20260506120611 | 62 | 216 | 0.0 | 0.0 | 0.00 | 0.00 | 0.00 | 84 | 1006.3 |
| 20260506115614 | 62 | 195 | 0.0 | 0.0 | 0.00 | 0.00 | 0.00 | 84 | 1006.4 |
| 20260506115113 | 62 | 213 | 0.0 | 0.0 | 0.00 | 0.00 | 0.00 | 84 | 1006.4 |
| 20260506114613 | 62 | 202 | 0.0 | 0.0 | 0.00 | 0.00 | 0.00 | 84 | 1006.4 |
| 20260506114114 | 62 | 209 | 0.0 | 0.0 | 0.00 | 0.00 | 0.00 | 84 | 1006.4 |
| 20260506112115 | 62 | 198 | 0.0 | 0.0 | 0.00 | 0.00 | 0.00 | 84 | 1006.3 |
| 20260506111616 | 62 | 184 | 0.0 | 0.0 | 0.00 | 0.00 | 0.00 | 84 | 1006.3 |
| 20260506111116 | 62 | 216 | 0.0 | 0.0 | 0.00 | 0.00 | 0.00 | 85 | 1006.3 |
| 20260506105618 | 61 | 186 | 0.0 | 0.0 | 0.00 | 0.00 | 0.00 | 86 | 1006.3 |
| 20260506105118 | 61 | 191 | 0.0 | 0.0 | 0.00 | 0.00 | 0.00 | 86 | 1006.3 |
| 20260506104618 | 61 | 203 | 0.0 | 0.0 | 0.00 | 0.00 | 0.00 | 86 | 1006.3 |
| 20260506104119 | 61 | 176 | 0.0 | 0.0 | 0.00 | 0.00 | 0.00 | 86 | 1006.2 |
| 20260506103619 | 61 | 199 | 0.0 | 0.0 | 0.00 | 0.00 | 0.00 | 87 | 1006.2 |
| 20260506103121 | 61 | 193 | 0.0 | 0.0 | 0.00 | 0.01 | 0.00 | 87 | 1006.2 |
| 20260506102619 | 61 | 184 | 0.0 | 0.0 | 0.00 | 0.01 | 0.00 | 87 | 1006.3 |
| 20260506102120 | 61 | 217 | 0.0 | 0.0 | 0.00 | 0.01 | 0.00 | 87 | 1006.3 |
| 20260506101620 | 61 | 212 | 0.0 | 0.0 | 0.00 | 0.01 | 0.00 | 87 | 1006.3 |
| 20260506101121 | 61 | 234 | 0.0 | 0.0 | 0.00 | 0.01 | 0.00 | 87 | 1006.2 |
| 20260506100621 | 61 | 174 | 0.0 | 0.0 | 0.00 | 0.01 | 0.00 | 87 | 1006.2 |
| 20260506094623 | 61 | 217 | 0.0 | 0.0 | 0.00 | 0.01 | 0.00 | 87 | 1006.0 |
| 20260506094123 | 61 | 210 | 0.0 | 0.0 | 0.00 | 0.01 | 0.00 | 87 | 1006.0 |
| 20260506093625 | 61 | 200 | 0.0 | 0.0 | 0.00 | 0.01 | 0.00 | 87 | 1006.0 |
| 20260506093054 | 61 | 215 | 0.0 | 0.0 | 0.00 | 0.01 | 0.00 | 87 | 1006.0 |
| 20260506092555 | 61 | 233 | 0.0 | 0.0 | 0.00 | 0.01 | 0.00 | 87 | 1006.3 |
| 20260506092125 | 61 | 203 | 0.0 | 0.0 | 0.00 | 0.01 | 0.00 | 86 | 1006.3 |
| 20260506091056 | 61 | 192 | 0.0 | 0.0 | 0.00 | 0.01 | 0.00 | 87 | 1006.3 |
| 20260506090559 | 61 | 182 | 0.0 | 0.0 | 0.00 | 0.01 | 0.00 | 87 | 1006.3 |
| 20260506085557 | 61 | 198 | 0.0 | 0.0 | 0.00 | 0.01 | 0.00 | 87 | 1006.4 |
| 20260506085128 | 60 | 168 | 0.0 | 0.0 | 0.00 | 0.01 | 0.00 | 87 | 1006.4 |
| 20260506084558 | 60 | 224 | 0.0 | 0.0 | 0.00 | 0.01 | 0.00 | 86 | 1006.4 |
| 20260506084128 | 60 | 193 | 0.0 | 0.0 | 0.00 | 0.01 | 0.00 | 86 | 1006.4 |
| 20260506083558 | 61 | 223 | 0.0 | 0.0 | 0.00 | 0.01 | 0.00 | 85 | 1006.4 |
| 20260506083059 | 61 | 179 | 0.0 | 0.0 | 0.00 | 0.01 | 0.00 | 85 | 1006.4 |
| 20260506082600 | 61 | 206 | 0.0 | 0.0 | 0.00 | 0.01 | 0.00 | 84 | 1006.4 |
| 20260506082100 | 61 | 220 | 0.0 | 0.0 | 0.00 | 0.01 | 0.00 | 84 | 1006.4 |
| 20260506081601 | 61 | 200 | 0.0 | 0.0 | 0.00 | 0.01 | 0.00 | 83 | 1006.4 |
| 20260506081101 | 61 | 191 | 0.0 | 0.0 | 0.00 | 0.01 | 0.00 | 82 | 1006.5 |
| 20260506080601 | 61 | 186 | 0.0 | 0.0 | 0.00 | 0.01 | 0.00 | 82 | 1006.5 |
| 20260506080132 | 61 | 206 | 0.0 | 0.0 | 0.00 | 0.01 | 0.00 | 81 | 1006.5 |
| 20260506073104 | 62 | 213 | 0.0 | 0.0 | 0.00 | 0.01 | 0.00 | 77 | 1006.6 |
| 20260506072605 | 62 | 236 | 0.0 | 0.0 | 0.00 | 0.01 | 0.00 | 76 | 1006.6 |
| 20260506072105 | 62 | 215 | 0.0 | 0.0 | 0.00 | 0.01 | 0.00 | 76 | 1006.6 |
| 20260506071607 | 62 | 215 | 0.0 | 0.0 | 0.00 | 0.01 | 0.00 | 75 | 1006.6 |
| 20260506071106 | 62 | 213 | 0.0 | 0.0 | 0.00 | 0.01 | 0.00 | 75 | 1006.7 |
| 20260506062122 | 63 | 205 | 0.0 | 0.0 | 0.00 | 0.01 | 0.00 | 70 | 1006.9 |
| 20260506061552 | 63 | 222 | 0.0 | 0.0 | 0.00 | 0.01 | 0.00 | 70 | 1006.9 |
| 20260506061053 | 63 | 205 | 0.0 | 0.0 | 0.00 | 0.01 | 0.00 | 69 | 1006.9 |
| 20260506060553 | 63 | 172 | 0.0 | 0.0 | 0.00 | 0.01 | 0.00 | 69 | 1006.9 |
| 20260506051057 | 64 | 203 | 0.0 | 0.0 | 0.00 | 0.01 | 0.00 | 66 | 1007.5 |
| 20260506050557 | 64 | 186 | 0.0 | 0.0 | 0.00 | 0.01 | 0.00 | 66 | 1007.5 |
| 20260506045058 | 64 | 205 | 0.0 | 0.0 | 0.00 | 0.01 | 0.00 | 65 | 1007.4 |
| 20260506044600 | 65 | 200 | 0.0 | 0.0 | 0.00 | 0.01 | 0.00 | 64 | 1007.4 |
| 20260506043559 | 65 | 215 | 0.0 | 0.0 | 0.00 | 0.01 | 0.00 | 64 | 1007.4 |
| 20260506043102 | 65 | 174 | 0.0 | 0.0 | 0.00 | 0.01 | 0.00 | 63 | 1007.4 |
| 20260506042600 | 65 | 219 | 0.0 | 0.0 | 0.00 | 0.01 | 0.00 | 63 | 1007.4 |
| 20260506042101 | 65 | 219 | 0.0 | 0.0 | 0.00 | 0.01 | 0.00 | 63 | 1007.4 |
| 20260506041101 | 65 | 199 | 0.0 | 0.0 | 0.00 | 0.01 | 0.00 | 63 | 1007.4 |
| 20260506035604 | 66 | 169 | 0.0 | 0.0 | 0.00 | 0.01 | 0.01 | 62 | 1007.3 |
| 20260506034603 | 66 | 215 | 0.0 | 0.0 | 0.00 | 0.01 | 0.01 | 62 | 1007.3 |
| 20260506034122 | 66 | 223 | 0.0 | 0.0 | 0.00 | 0.01 | 0.01 | 62 | 1007.4 |
| 20260506033604 | 66 | 217 | 0.0 | 0.0 | 0.00 | 0.01 | 0.01 | 61 | 1007.4 |
| 20260506033105 | 66 | 213 | 0.0 | 0.0 | 0.00 | 0.01 | 0.01 | 61 | 1007.4 |
| 20260506032605 | 66 | 196 | 0.0 | 0.0 | 0.00 | 0.01 | 0.01 | 60 | 1007.3 |
| 20260506032105 | 66 | 175 | 0.0 | 0.0 | 0.00 | 0.01 | 0.01 | 60 | 1007.3 |
| 20260506031106 | 67 | 208 | 0.0 | 0.0 | 0.00 | 0.01 | 0.01 | 59 | 1007.4 |
| 20260506025607 | 67 | 215 | 0.0 | 0.0 | 0.00 | 0.01 | 0.01 | 57 | 1007.2 |
| 20260506025109 | 68 | 210 | 0.0 | 0.0 | 0.00 | 0.01 | 0.01 | 56 | 1007.2 |
| 20260506024608 | 68 | 220 | 0.0 | 0.0 | 0.00 | 0.01 | 0.01 | 55 | 1007.2 |
| 20260506023110 | 68 | 138 | 0.0 | 0.0 | 0.00 | 0.01 | 0.01 | 52 | 1007.2 |
| 20260506022611 | 69 | 169 | 0.0 | 0.0 | 0.00 | 0.01 | 0.01 | 51 | 1007.2 |
| 20260506022110 | 69 | 215 | 0.0 | 0.0 | 0.00 | 0.01 | 0.01 | 50 | 1007.2 |
| 20260506021112 | 69 | 200 | 0.0 | 0.0 | 0.00 | 0.01 | 0.01 | 47 | 1006.9 |
| 20260506020612 | 70 | 219 | 0.0 | 0.0 | 0.00 | 0.01 | 0.01 | 46 | 1006.9 |
| 20260506015613 | 70 | 199 | 0.0 | 0.0 | 0.00 | 0.01 | 0.01 | 45 | 1006.9 |
| 20260506015113 | 70 | 212 | 0.0 | 0.0 | 0.00 | 0.01 | 0.01 | 45 | 1006.9 |
| 20260506014613 | 70 | 226 | 0.0 | 0.0 | 0.00 | 0.01 | 0.01 | 45 | 1006.9 |
| 20260506014113 | 70 | 206 | 0.0 | 0.0 | 0.00 | 0.01 | 0.01 | 45 | 1006.8 |
| 20260506013614 | 70 | 200 | 0.0 | 0.0 | 0.00 | 0.01 | 0.01 | 44 | 1006.8 |
| 20260506013114 | 70 | 192 | 0.0 | 0.0 | 0.00 | 0.01 | 0.01 | 45 | 1006.8 |
| 20260506012615 | 71 | 210 | 0.0 | 0.0 | 0.00 | 0.01 | 0.01 | 45 | 1006.7 |
| 20260506012115 | 71 | 208 | 0.0 | 0.0 | 0.00 | 0.01 | 0.01 | 44 | 1006.7 |
| 20260506011617 | 71 | 202 | 0.0 | 0.0 | 0.00 | 0.01 | 0.01 | 45 | 1006.7 |
| 20260506011116 | 71 | 202 | 0.0 | 0.0 | 0.00 | 0.01 | 0.01 | 45 | 1006.4 |
| 20260506010616 | 71 | 212 | 0.0 | 0.0 | 0.00 | 0.01 | 0.01 | 44 | 1006.4 |
| 20260506005617 | 72 | 213 | 0.0 | 0.0 | 0.00 | 0.01 | 0.01 | 43 | 1006.3 |
| 20260506005117 | 72 | 200 | 0.0 | 0.0 | 0.00 | 0.01 | 0.01 | 43 | 1006.3 |
| 20260506004617 | 72 | 209 | 0.0 | 0.0 | 0.00 | 0.01 | 0.01 | 42 | 1006.3 |
| 20260506004118 | 72 | 213 | 0.0 | 0.0 | 0.00 | 0.01 | 0.01 | 41 | 1006.1 |
| 20260506003619 | 73 | 202 | 0.0 | 0.0 | 0.00 | 0.01 | 0.01 | 41 | 1006.1 |
| 20260506003119 | 73 | 222 | 0.0 | 0.0 | 0.00 | 0.01 | 0.01 | 40 | 1006.1 |
| 20260506002619 | 73 | 203 | 0.0 | 0.0 | 0.00 | 0.01 | 0.01 | 40 | 1006.0 |
| 20260506002121 | 73 | 216 | 0.0 | 0.0 | 0.00 | 0.01 | 0.01 | 39 | 1006.0 |
| 20260506001619 | 73 | 172 | 0.0 | 0.0 | 0.00 | 0.01 | 0.01 | 39 | 1006.0 |
| 20260506000620 | 73 | 229 | 0.0 | 0.0 | 0.00 | 0.01 | 0.01 | 38 | 1005.8 |
| 20260505235551 | 74 | 229 | 0.0 | 0.0 | 0.00 | 0.01 | 0.01 | 37 | 1005.6 |
| 20260505235122 | 74 | 208 | 0.0 | 0.0 | 0.00 | 0.01 | 0.01 | 37 | 1005.6 |
| 20260505234622 | 74 | 206 | 0.0 | 0.0 | 0.00 | 0.01 | 0.01 | 36 | 1005.6 |
| 20260505234123 | 74 | 223 | 0.0 | 0.0 | 0.00 | 0.01 | 0.01 | 36 | 1005.6 |
| 20260505233553 | 74 | 206 | 0.0 | 0.0 | 0.00 | 0.01 | 0.01 | 36 | 1005.6 |
| 20260505233054 | 75 | 208 | 0.0 | 0.0 | 0.00 | 0.01 | 0.01 | 36 | 1005.7 |
| 20260505232554 | 75 | 216 | 0.0 | 0.0 | 0.00 | 0.01 | 0.01 | 36 | 1005.5 |
| 20260505232054 | 75 | 213 | 0.0 | 0.0 | 0.00 | 0.01 | 0.01 | 36 | 1005.5 |
| 20260505231126 | 75 | 200 | 0.0 | 0.0 | 0.00 | 0.01 | 0.01 | 35 | 1005.4 |
| 20260505230556 | 75 | 168 | 0.0 | 0.0 | 0.00 | 0.01 | 0.01 | 35 | 1005.4 |
| 20260505225556 | 75 | 219 | 0.0 | 0.0 | 0.00 | 0.01 | 0.01 | 34 | 1005.0 |
| 20260505225057 | 76 | 206 | 0.0 | 0.0 | 0.00 | 0.01 | 0.01 | 34 | 1005.0 |
| 20260505224557 | 76 | 220 | 0.0 | 0.0 | 0.00 | 0.01 | 0.01 | 34 | 1005.0 |
| 20260505224057 | 76 | 210 | 0.0 | 0.0 | 0.00 | 0.01 | 0.01 | 33 | 1004.9 |